sensor_id;sensor_type;location;lat;lon;timestamp;temperature;humidity
24686;DHT22;12804;51.176;4.452;2022-12-18T00:01:37;-2.70;99.90
24686;DHT22;12804;51.176;4.452;2022-12-18T00:04:05;-2.80;99.90
24686;DHT22;12804;51.176;4.452;2022-12-18T00:06:32;-2.80;99.90
24686;DHT22;12804;51.176;4.452;2022-12-18T00:08:59;-2.80;99.90
24686;DHT22;12804;51.176;4.452;2022-12-18T00:11:28;-2.90;99.90
24686;DHT22;12804;51.176;4.452;2022-12-18T00:13:55;-3.00;99.90
24686;DHT22;12804;51.176;4.452;2022-12-18T00:16:23;-3.00;99.90
24686;DHT22;12804;51.176;4.452;2022-12-18T00:18:51;-3.10;99.90
24686;DHT22;12804;51.176;4.452;2022-12-18T00:21:18;-3.10;99.90
24686;DHT22;12804;51.176;4.452;2022-12-18T00:23:45;-3.10;99.90
24686;DHT22;12804;51.176;4.452;2022-12-18T00:26:14;-3.10;99.90
24686;DHT22;12804;51.176;4.452;2022-12-18T00:28:41;-3.20;99.90
24686;DHT22;12804;51.176;4.452;2022-12-18T00:31:12;-3.20;99.90
24686;DHT22;12804;51.176;4.452;2022-12-18T00:33:38;-3.20;99.90
24686;DHT22;12804;51.176;4.452;2022-12-18T00:36:06;-3.20;99.90
24686;DHT22;12804;51.176;4.452;2022-12-18T00:38:33;-3.20;99.90
24686;DHT22;12804;51.176;4.452;2022-12-18T00:40:59;-3.20;99.90
24686;DHT22;12804;51.176;4.452;2022-12-18T00:43:25;-3.20;99.90
24686;DHT22;12804;51.176;4.452;2022-12-18T00:45:52;-3.10;99.90
24686;DHT22;12804;51.176;4.452;2022-12-18T00:48:18;-3.10;99.90
24686;DHT22;12804;51.176;4.452;2022-12-18T00:50:44;-3.20;99.90
24686;DHT22;12804;51.176;4.452;2022-12-18T00:53:10;-3.20;99.90
24686;DHT22;12804;51.176;4.452;2022-12-18T00:55:38;-3.20;99.90
24686;DHT22;12804;51.176;4.452;2022-12-18T00:58:04;-3.20;99.90
24686;DHT22;12804;51.176;4.452;2022-12-18T01:00:30;-3.30;99.90
24686;DHT22;12804;51.176;4.452;2022-12-18T01:02:56;-3.30;99.90
24686;DHT22;12804;51.176;4.452;2022-12-18T01:05:23;-3.20;99.90
24686;DHT22;12804;51.176;4.452;2022-12-18T01:07:50;-3.30;99.90
24686;DHT22;12804;51.176;4.452;2022-12-18T01:10:16;-3.40;99.90
24686;DHT22;12804;51.176;4.452;2022-12-18T01:12:42;-3.30;99.90
24686;DHT22;12804;51.176;4.452;2022-12-18T01:15:10;-3.40;99.90
24686;DHT22;12804;51.176;4.452;2022-12-18T01:17:37;-3.50;99.90
24686;DHT22;12804;51.176;4.452;2022-12-18T01:20:03;-3.50;99.90
24686;DHT22;12804;51.176;4.452;2022-12-18T01:22:29;-3.40;99.90
24686;DHT22;12804;51.176;4.452;2022-12-18T01:24:55;-3.40;99.90
24686;DHT22;12804;51.176;4.452;2022-12-18T01:27:22;-3.40;99.90
24686;DHT22;12804;51.176;4.452;2022-12-18T01:29:49;-3.50;99.90
24686;DHT22;12804;51.176;4.452;2022-12-18T01:32:15;-3.50;99.90
24686;DHT22;12804;51.176;4.452;2022-12-18T01:34:41;-3.40;99.90
24686;DHT22;12804;51.176;4.452;2022-12-18T01:37:06;-3.40;99.90
24686;DHT22;12804;51.176;4.452;2022-12-18T01:39:32;-3.40;99.90
24686;DHT22;12804;51.176;4.452;2022-12-18T01:41:59;-3.50;99.90
24686;DHT22;12804;51.176;4.452;2022-12-18T01:47:24;-3.60;99.90
24686;DHT22;12804;51.176;4.452;2022-12-18T01:49:51;-3.60;99.90
24686;DHT22;12804;51.176;4.452;2022-12-18T01:52:17;-3.60;99.90
24686;DHT22;12804;51.176;4.452;2022-12-18T01:54:44;-3.80;99.90
24686;DHT22;12804;51.176;4.452;2022-12-18T01:57:11;-3.80;99.90
24686;DHT22;12804;51.176;4.452;2022-12-18T01:59:37;-3.70;99.90
24686;DHT22;12804;51.176;4.452;2022-12-18T02:02:05;-3.70;99.90
24686;DHT22;12804;51.176;4.452;2022-12-18T02:04:31;-3.70;99.90
24686;DHT22;12804;51.176;4.452;2022-12-18T02:10:05;-3.90;99.90
24686;DHT22;12804;51.176;4.452;2022-12-18T02:12:45;-3.90;99.90
24686;DHT22;12804;51.176;4.452;2022-12-18T02:15:40;-3.90;99.90
24686;DHT22;12804;51.176;4.452;2022-12-18T02:18:14;-3.80;99.90
24686;DHT22;12804;51.176;4.452;2022-12-18T02:20:49;-3.80;99.90
24686;DHT22;12804;51.176;4.452;2022-12-18T02:23:45;-3.80;99.90
24686;DHT22;12804;51.176;4.452;2022-12-18T02:26:26;-3.70;99.90
24686;DHT22;12804;51.176;4.452;2022-12-18T02:29:02;-3.70;99.90
24686;DHT22;12804;51.176;4.452;2022-12-18T02:31:36;-3.70;99.90
24686;DHT22;12804;51.176;4.452;2022-12-18T02:34:07;-3.70;99.90
24686;DHT22;12804;51.176;4.452;2022-12-18T02:36:39;-3.70;99.90
24686;DHT22;12804;51.176;4.452;2022-12-18T02:39:09;-3.60;99.90
24686;DHT22;12804;51.176;4.452;2022-12-18T02:41:38;-3.70;99.90
24686;DHT22;12804;51.176;4.452;2022-12-18T02:44:09;-3.80;99.90
24686;DHT22;12804;51.176;4.452;2022-12-18T02:46:45;-3.80;99.90
24686;DHT22;12804;51.176;4.452;2022-12-18T02:55:48;-3.80;99.90
24686;DHT22;12804;51.176;4.452;2022-12-18T02:58:14;-3.80;99.90
24686;DHT22;12804;51.176;4.452;2022-12-18T03:01:30;-3.80;99.90
24686;DHT22;12804;51.176;4.452;2022-12-18T03:03:40;-3.80;99.90
24686;DHT22;12804;51.176;4.452;2022-12-18T03:08:49;-3.70;99.90
24686;DHT22;12804;51.176;4.452;2022-12-18T03:11:17;-3.70;99.90
24686;DHT22;12804;51.176;4.452;2022-12-18T03:14:06;-3.70;99.90
24686;DHT22;12804;51.176;4.452;2022-12-18T03:16:34;-3.80;99.90
24686;DHT22;12804;51.176;4.452;2022-12-18T03:19:14;-3.80;99.90
24686;DHT22;12804;51.176;4.452;2022-12-18T03:21:46;-3.90;99.90
24686;DHT22;12804;51.176;4.452;2022-12-18T03:24:15;-3.90;99.90
24686;DHT22;12804;51.176;4.452;2022-12-18T03:26:46;-3.90;99.90
24686;DHT22;12804;51.176;4.452;2022-12-18T03:29:27;-4.00;99.90
24686;DHT22;12804;51.176;4.452;2022-12-18T03:32:03;-3.90;99.90
24686;DHT22;12804;51.176;4.452;2022-12-18T03:34:34;-3.90;99.90
24686;DHT22;12804;51.176;4.452;2022-12-18T03:37:06;-4.00;99.90
24686;DHT22;12804;51.176;4.452;2022-12-18T03:39:34;-4.00;99.90
24686;DHT22;12804;51.176;4.452;2022-12-18T03:45:20;-4.00;99.90
24686;DHT22;12804;51.176;4.452;2022-12-18T03:51:09;-4.00;99.90
24686;DHT22;12804;51.176;4.452;2022-12-18T03:53:46;-4.00;99.90
24686;DHT22;12804;51.176;4.452;2022-12-18T03:56:13;-4.10;99.90
24686;DHT22;12804;51.176;4.452;2022-12-18T03:58:43;-4.00;99.90
24686;DHT22;12804;51.176;4.452;2022-12-18T04:01:31;-4.00;99.90
24686;DHT22;12804;51.176;4.452;2022-12-18T04:04:00;-4.10;99.90
24686;DHT22;12804;51.176;4.452;2022-12-18T04:06:29;-4.00;99.90
24686;DHT22;12804;51.176;4.452;2022-12-18T04:08:57;-4.00;99.90
24686;DHT22;12804;51.176;4.452;2022-12-18T04:11:25;-4.00;99.90
24686;DHT22;12804;51.176;4.452;2022-12-18T04:13:56;-4.00;99.90
24686;DHT22;12804;51.176;4.452;2022-12-18T04:16:24;-4.00;99.90
24686;DHT22;12804;51.176;4.452;2022-12-18T04:18:54;-3.90;99.90
24686;DHT22;12804;51.176;4.452;2022-12-18T04:21:22;-3.90;99.90
24686;DHT22;12804;51.176;4.452;2022-12-18T04:23:49;-4.00;99.90
24686;DHT22;12804;51.176;4.452;2022-12-18T04:26:16;-4.10;99.90
24686;DHT22;12804;51.176;4.452;2022-12-18T04:28:54;-4.20;99.90
24686;DHT22;12804;51.176;4.452;2022-12-18T04:31:20;-4.20;99.90
24686;DHT22;12804;51.176;4.452;2022-12-18T04:33:46;-4.20;99.90
24686;DHT22;12804;51.176;4.452;2022-12-18T04:36:13;-4.20;99.90
24686;DHT22;12804;51.176;4.452;2022-12-18T04:38:39;-4.30;99.90
24686;DHT22;12804;51.176;4.452;2022-12-18T04:41:09;-4.30;99.90
24686;DHT22;12804;51.176;4.452;2022-12-18T04:43:36;-4.30;99.90
24686;DHT22;12804;51.176;4.452;2022-12-18T04:46:06;-4.30;99.90
24686;DHT22;12804;51.176;4.452;2022-12-18T04:48:32;-4.30;99.90
24686;DHT22;12804;51.176;4.452;2022-12-18T04:50:58;-4.30;99.90
24686;DHT22;12804;51.176;4.452;2022-12-18T04:53:24;-4.30;99.90
24686;DHT22;12804;51.176;4.452;2022-12-18T04:55:50;-4.30;99.90
24686;DHT22;12804;51.176;4.452;2022-12-18T04:58:16;-4.30;99.90
24686;DHT22;12804;51.176;4.452;2022-12-18T05:00:42;-4.20;99.90
24686;DHT22;12804;51.176;4.452;2022-12-18T05:03:08;-4.30;99.90
24686;DHT22;12804;51.176;4.452;2022-12-18T05:05:35;-4.30;99.90
24686;DHT22;12804;51.176;4.452;2022-12-18T05:08:01;-4.20;99.90
24686;DHT22;12804;51.176;4.452;2022-12-18T05:10:27;-4.10;99.90
24686;DHT22;12804;51.176;4.452;2022-12-18T05:12:52;-4.20;99.90
24686;DHT22;12804;51.176;4.452;2022-12-18T05:15:31;-4.20;99.90
24686;DHT22;12804;51.176;4.452;2022-12-18T05:17:58;-4.30;99.90
24686;DHT22;12804;51.176;4.452;2022-12-18T05:20:25;-4.30;99.90
24686;DHT22;12804;51.176;4.452;2022-12-18T05:22:51;-4.40;99.90
24686;DHT22;12804;51.176;4.452;2022-12-18T05:25:18;-4.30;99.90
24686;DHT22;12804;51.176;4.452;2022-12-18T05:27:44;-4.30;99.90
24686;DHT22;12804;51.176;4.452;2022-12-18T05:30:11;-4.30;99.90
24686;DHT22;12804;51.176;4.452;2022-12-18T05:32:37;-4.30;99.90
24686;DHT22;12804;51.176;4.452;2022-12-18T05:35:04;-4.20;99.90
24686;DHT22;12804;51.176;4.452;2022-12-18T05:37:31;-4.30;99.90
24686;DHT22;12804;51.176;4.452;2022-12-18T05:39:56;-4.20;99.90
24686;DHT22;12804;51.176;4.452;2022-12-18T05:42:22;-4.30;99.90
24686;DHT22;12804;51.176;4.452;2022-12-18T05:44:48;-4.30;99.90
24686;DHT22;12804;51.176;4.452;2022-12-18T05:47:14;-4.30;99.90
24686;DHT22;12804;51.176;4.452;2022-12-18T05:49:40;-4.30;99.90
24686;DHT22;12804;51.176;4.452;2022-12-18T05:52:05;-4.40;99.90
24686;DHT22;12804;51.176;4.452;2022-12-18T05:54:31;-4.50;99.90
24686;DHT22;12804;51.176;4.452;2022-12-18T05:56:57;-4.50;99.90
24686;DHT22;12804;51.176;4.452;2022-12-18T05:59:24;-4.50;99.90
24686;DHT22;12804;51.176;4.452;2022-12-18T06:01:50;-4.60;99.90
24686;DHT22;12804;51.176;4.452;2022-12-18T06:04:15;-4.60;99.90
24686;DHT22;12804;51.176;4.452;2022-12-18T06:06:41;-4.50;99.90
24686;DHT22;12804;51.176;4.452;2022-12-18T06:09:07;-4.60;99.90
24686;DHT22;12804;51.176;4.452;2022-12-18T06:11:38;-4.50;99.90
24686;DHT22;12804;51.176;4.452;2022-12-18T06:14:05;-4.40;99.90
24686;DHT22;12804;51.176;4.452;2022-12-18T06:16:32;-4.50;99.90
24686;DHT22;12804;51.176;4.452;2022-12-18T06:18:59;-4.50;99.90
24686;DHT22;12804;51.176;4.452;2022-12-18T06:21:26;-4.50;99.90
24686;DHT22;12804;51.176;4.452;2022-12-18T06:23:51;-4.40;99.90
24686;DHT22;12804;51.176;4.452;2022-12-18T06:26:18;-4.30;99.90
24686;DHT22;12804;51.176;4.452;2022-12-18T06:28:44;-4.30;99.90
24686;DHT22;12804;51.176;4.452;2022-12-18T06:31:10;-4.30;99.90
24686;DHT22;12804;51.176;4.452;2022-12-18T06:33:37;-4.30;99.90
24686;DHT22;12804;51.176;4.452;2022-12-18T06:36:09;-4.30;99.90
24686;DHT22;12804;51.176;4.452;2022-12-18T06:38:38;-4.30;99.90
24686;DHT22;12804;51.176;4.452;2022-12-18T06:41:09;-4.30;99.90
24686;DHT22;12804;51.176;4.452;2022-12-18T06:43:35;-4.40;99.90
24686;DHT22;12804;51.176;4.452;2022-12-18T06:46:02;-4.40;99.90
24686;DHT22;12804;51.176;4.452;2022-12-18T06:48:28;-4.30;99.90
24686;DHT22;12804;51.176;4.452;2022-12-18T06:50:54;-4.20;99.90
24686;DHT22;12804;51.176;4.452;2022-12-18T06:53:20;-4.20;99.90
24686;DHT22;12804;51.176;4.452;2022-12-18T06:55:45;-4.30;99.90
24686;DHT22;12804;51.176;4.452;2022-12-18T06:58:11;-4.40;99.90
24686;DHT22;12804;51.176;4.452;2022-12-18T07:00:37;-4.40;99.90
24686;DHT22;12804;51.176;4.452;2022-12-18T07:03:03;-4.40;99.90
24686;DHT22;12804;51.176;4.452;2022-12-18T07:05:29;-4.40;99.90
24686;DHT22;12804;51.176;4.452;2022-12-18T07:07:54;-4.40;99.90
24686;DHT22;12804;51.176;4.452;2022-12-18T07:10:20;-4.40;99.90
24686;DHT22;12804;51.176;4.452;2022-12-18T07:12:46;-4.30;99.90
24686;DHT22;12804;51.176;4.452;2022-12-18T07:15:12;-4.20;99.90
24686;DHT22;12804;51.176;4.452;2022-12-18T07:17:38;-4.30;99.90
24686;DHT22;12804;51.176;4.452;2022-12-18T07:20:04;-4.30;99.90
24686;DHT22;12804;51.176;4.452;2022-12-18T07:22:30;-4.30;99.90
24686;DHT22;12804;51.176;4.452;2022-12-18T07:24:56;-4.30;99.90
24686;DHT22;12804;51.176;4.452;2022-12-18T07:27:22;-4.30;99.90
24686;DHT22;12804;51.176;4.452;2022-12-18T07:29:48;-4.40;99.90
24686;DHT22;12804;51.176;4.452;2022-12-18T07:32:14;-4.40;99.90
24686;DHT22;12804;51.176;4.452;2022-12-18T07:34:40;-4.20;99.90
24686;DHT22;12804;51.176;4.452;2022-12-18T07:37:06;-4.20;99.90
24686;DHT22;12804;51.176;4.452;2022-12-18T07:39:32;-4.20;99.90
24686;DHT22;12804;51.176;4.452;2022-12-18T07:41:57;-4.20;99.90
24686;DHT22;12804;51.176;4.452;2022-12-18T07:44:42;-4.30;99.90
24686;DHT22;12804;51.176;4.452;2022-12-18T07:47:08;-4.20;99.90
24686;DHT22;12804;51.176;4.452;2022-12-18T07:49:34;-4.30;99.90
24686;DHT22;12804;51.176;4.452;2022-12-18T07:52:00;-4.30;99.90
24686;DHT22;12804;51.176;4.452;2022-12-18T07:54:27;-4.30;99.90
24686;DHT22;12804;51.176;4.452;2022-12-18T07:56:53;-4.30;99.90
24686;DHT22;12804;51.176;4.452;2022-12-18T07:59:18;-4.30;99.90
24686;DHT22;12804;51.176;4.452;2022-12-18T08:01:44;-4.30;99.90
24686;DHT22;12804;51.176;4.452;2022-12-18T08:04:10;-4.20;99.90
24686;DHT22;12804;51.176;4.452;2022-12-18T08:06:36;-4.30;99.90
24686;DHT22;12804;51.176;4.452;2022-12-18T08:09:02;-4.20;99.90
24686;DHT22;12804;51.176;4.452;2022-12-18T08:11:28;-4.20;99.90
24686;DHT22;12804;51.176;4.452;2022-12-18T08:13:54;-4.20;99.90
24686;DHT22;12804;51.176;4.452;2022-12-18T08:16:21;-4.30;99.90
24686;DHT22;12804;51.176;4.452;2022-12-18T08:18:48;-4.20;99.90
24686;DHT22;12804;51.176;4.452;2022-12-18T08:21:20;-4.10;99.90
24686;DHT22;12804;51.176;4.452;2022-12-18T08:23:49;-4.00;99.90
24686;DHT22;12804;51.176;4.452;2022-12-18T08:26:15;-3.90;99.90
24686;DHT22;12804;51.176;4.452;2022-12-18T08:28:42;-3.90;99.90
24686;DHT22;12804;51.176;4.452;2022-12-18T08:31:08;-3.90;99.90
24686;DHT22;12804;51.176;4.452;2022-12-18T08:33:34;-3.90;99.90
24686;DHT22;12804;51.176;4.452;2022-12-18T08:36:01;-3.80;99.90
24686;DHT22;12804;51.176;4.452;2022-12-18T08:38:27;-3.80;99.90
24686;DHT22;12804;51.176;4.452;2022-12-18T08:41:05;-3.60;99.90
24686;DHT22;12804;51.176;4.452;2022-12-18T08:43:31;-3.60;99.90
24686;DHT22;12804;51.176;4.452;2022-12-18T08:46:16;-3.60;99.90
24686;DHT22;12804;51.176;4.452;2022-12-18T08:48:42;-3.50;99.90
24686;DHT22;12804;51.176;4.452;2022-12-18T08:51:08;-3.50;99.90
24686;DHT22;12804;51.176;4.452;2022-12-18T08:53:35;-3.30;99.90
24686;DHT22;12804;51.176;4.452;2022-12-18T08:56:02;-3.20;99.90
24686;DHT22;12804;51.176;4.452;2022-12-18T08:58:28;-3.10;99.90
24686;DHT22;12804;51.176;4.452;2022-12-18T09:00:59;-3.00;99.90
24686;DHT22;12804;51.176;4.452;2022-12-18T09:03:24;-2.80;99.90
24686;DHT22;12804;51.176;4.452;2022-12-18T09:05:50;-2.80;99.90
24686;DHT22;12804;51.176;4.452;2022-12-18T09:08:16;-2.60;99.90
24686;DHT22;12804;51.176;4.452;2022-12-18T09:10:47;-2.50;99.90
24686;DHT22;12804;51.176;4.452;2022-12-18T09:13:14;-2.40;99.90
24686;DHT22;12804;51.176;4.452;2022-12-18T09:15:44;-2.20;99.90
24686;DHT22;12804;51.176;4.452;2022-12-18T09:18:12;-2.20;99.90
24686;DHT22;12804;51.176;4.452;2022-12-18T09:20:38;-2.20;99.90
24686;DHT22;12804;51.176;4.452;2022-12-18T09:23:05;-2.20;99.90
24686;DHT22;12804;51.176;4.452;2022-12-18T09:25:31;-2.20;99.90
24686;DHT22;12804;51.176;4.452;2022-12-18T09:27:59;-2.10;99.90
24686;DHT22;12804;51.176;4.452;2022-12-18T09:30:26;-2.10;99.90
24686;DHT22;12804;51.176;4.452;2022-12-18T09:32:52;-2.00;99.90
24686;DHT22;12804;51.176;4.452;2022-12-18T09:35:19;-1.90;99.90
24686;DHT22;12804;51.176;4.452;2022-12-18T09:37:45;-1.80;99.90
24686;DHT22;12804;51.176;4.452;2022-12-18T09:40:18;-1.70;99.90
24686;DHT22;12804;51.176;4.452;2022-12-18T09:42:54;-1.50;99.90
24686;DHT22;12804;51.176;4.452;2022-12-18T09:45:21;-1.50;99.90
24686;DHT22;12804;51.176;4.452;2022-12-18T09:47:49;-1.30;99.90
24686;DHT22;12804;51.176;4.452;2022-12-18T09:50:37;-1.30;99.90
24686;DHT22;12804;51.176;4.452;2022-12-18T09:53:09;-1.20;99.90
24686;DHT22;12804;51.176;4.452;2022-12-18T09:55:40;-1.20;99.90
24686;DHT22;12804;51.176;4.452;2022-12-18T10:01:11;-1.10;99.90
24686;DHT22;12804;51.176;4.452;2022-12-18T10:03:37;-1.10;99.90
24686;DHT22;12804;51.176;4.452;2022-12-18T10:06:24;-1.10;99.90
24686;DHT22;12804;51.176;4.452;2022-12-18T10:08:59;-1.00;99.90
24686;DHT22;12804;51.176;4.452;2022-12-18T10:14:11;-0.80;99.90
24686;DHT22;12804;51.176;4.452;2022-12-18T10:16:44;-0.70;99.90
24686;DHT22;12804;51.176;4.452;2022-12-18T10:19:39;-0.90;99.90
24686;DHT22;12804;51.176;4.452;2022-12-18T10:28:14;-0.90;99.90
24686;DHT22;12804;51.176;4.452;2022-12-18T10:30:42;-0.80;99.90
24686;DHT22;12804;51.176;4.452;2022-12-18T10:33:20;-0.80;99.90
24686;DHT22;12804;51.176;4.452;2022-12-18T10:35:49;-0.70;99.90
24686;DHT22;12804;51.176;4.452;2022-12-18T10:43:19;-0.50;99.90
24686;DHT22;12804;51.176;4.452;2022-12-18T10:45:59;-0.40;99.90
24686;DHT22;12804;51.176;4.452;2022-12-18T10:48:25;-0.30;99.90
24686;DHT22;12804;51.176;4.452;2022-12-18T10:50:52;-0.30;99.90
24686;DHT22;12804;51.176;4.452;2022-12-18T10:53:26;-0.30;99.90
24686;DHT22;12804;51.176;4.452;2022-12-18T10:55:55;-0.20;99.90
24686;DHT22;12804;51.176;4.452;2022-12-18T11:04:17;0.10;99.90
24686;DHT22;12804;51.176;4.452;2022-12-18T11:06:24;0.10;99.90
24686;DHT22;12804;51.176;4.452;2022-12-18T11:09:05;0.00;99.90
24686;DHT22;12804;51.176;4.452;2022-12-18T11:11:32;0.10;99.90
24686;DHT22;12804;51.176;4.452;2022-12-18T11:14:32;0.20;99.90
24686;DHT22;12804;51.176;4.452;2022-12-18T11:16:51;0.10;99.90
24686;DHT22;12804;51.176;4.452;2022-12-18T11:19:31;0.20;99.90
24686;DHT22;12804;51.176;4.452;2022-12-18T11:21:59;0.40;99.90
24686;DHT22;12804;51.176;4.452;2022-12-18T11:24:31;0.30;99.90
24686;DHT22;12804;51.176;4.452;2022-12-18T11:27:02;0.40;99.90
24686;DHT22;12804;51.176;4.452;2022-12-18T11:29:37;0.40;99.90
24686;DHT22;12804;51.176;4.452;2022-12-18T11:32:29;0.40;99.90
24686;DHT22;12804;51.176;4.452;2022-12-18T11:37:35;0.30;99.90
24686;DHT22;12804;51.176;4.452;2022-12-18T11:42:52;0.60;99.90
24686;DHT22;12804;51.176;4.452;2022-12-18T11:45:34;0.50;99.90
24686;DHT22;12804;51.176;4.452;2022-12-18T11:48:24;0.60;99.90
24686;DHT22;12804;51.176;4.452;2022-12-18T11:51:05;0.50;99.90
24686;DHT22;12804;51.176;4.452;2022-12-18T11:53:35;0.60;99.90
24686;DHT22;12804;51.176;4.452;2022-12-18T11:56:34;0.50;99.90
24686;DHT22;12804;51.176;4.452;2022-12-18T12:27:43;1.10;99.90
24686;DHT22;12804;51.176;4.452;2022-12-18T12:38:43;1.10;99.90
24686;DHT22;12804;51.176;4.452;2022-12-18T12:41:14;1.30;99.90
24686;DHT22;12804;51.176;4.452;2022-12-18T12:44:03;1.30;99.90
24686;DHT22;12804;51.176;4.452;2022-12-18T12:46:33;1.30;99.90
24686;DHT22;12804;51.176;4.452;2022-12-18T12:49:03;1.20;99.90
24686;DHT22;12804;51.176;4.452;2022-12-18T12:51:35;1.00;99.90
24686;DHT22;12804;51.176;4.452;2022-12-18T12:54:05;1.10;99.90
24686;DHT22;12804;51.176;4.452;2022-12-18T12:56:52;1.10;99.90
24686;DHT22;12804;51.176;4.452;2022-12-18T12:59:47;1.30;99.90
24686;DHT22;12804;51.176;4.452;2022-12-18T13:05:21;1.00;99.90
24686;DHT22;12804;51.176;4.452;2022-12-18T13:07:53;0.90;99.90
24686;DHT22;12804;51.176;4.452;2022-12-18T13:10:42;0.80;99.90
24686;DHT22;12804;51.176;4.452;2022-12-18T13:13:13;0.70;99.90
24686;DHT22;12804;51.176;4.452;2022-12-18T13:20:38;0.90;99.90
24686;DHT22;12804;51.176;4.452;2022-12-18T13:25:53;1.00;99.90
24686;DHT22;12804;51.176;4.452;2022-12-18T13:34:20;1.20;99.90
24686;DHT22;12804;51.176;4.452;2022-12-18T13:36:47;1.00;99.90
24686;DHT22;12804;51.176;4.452;2022-12-18T13:41:40;1.10;99.90
24686;DHT22;12804;51.176;4.452;2022-12-18T13:44:35;1.00;99.90
24686;DHT22;12804;51.176;4.452;2022-12-18T13:47:03;0.80;99.90
24686;DHT22;12804;51.176;4.452;2022-12-18T13:49:36;0.90;99.90
24686;DHT22;12804;51.176;4.452;2022-12-18T13:52:19;0.90;99.90
24686;DHT22;12804;51.176;4.452;2022-12-18T13:54:52;1.00;99.90
24686;DHT22;12804;51.176;4.452;2022-12-18T13:57:39;1.20;99.90
24686;DHT22;12804;51.176;4.452;2022-12-18T14:02:49;1.40;99.90
24686;DHT22;12804;51.176;4.452;2022-12-18T14:05:30;1.40;99.90
24686;DHT22;12804;51.176;4.452;2022-12-18T14:08:06;1.30;99.90
24686;DHT22;12804;51.176;4.452;2022-12-18T14:10:33;1.40;99.90
24686;DHT22;12804;51.176;4.452;2022-12-18T14:13:05;1.40;99.90
24686;DHT22;12804;51.176;4.452;2022-12-18T14:15:33;1.30;99.90
24686;DHT22;12804;51.176;4.452;2022-12-18T14:18:08;1.30;99.90
24686;DHT22;12804;51.176;4.452;2022-12-18T14:20:35;1.40;99.90
24686;DHT22;12804;51.176;4.452;2022-12-18T14:23:02;1.40;99.90
24686;DHT22;12804;51.176;4.452;2022-12-18T14:25:30;1.40;99.90
24686;DHT22;12804;51.176;4.452;2022-12-18T14:30:39;1.30;99.90
24686;DHT22;12804;51.176;4.452;2022-12-18T14:33:09;1.10;99.90
24686;DHT22;12804;51.176;4.452;2022-12-18T14:35:41;1.10;99.90
24686;DHT22;12804;51.176;4.452;2022-12-18T14:38:27;1.10;99.90
24686;DHT22;12804;51.176;4.452;2022-12-18T14:40:58;1.00;99.90
24686;DHT22;12804;51.176;4.452;2022-12-18T14:43:31;1.30;99.90
24686;DHT22;12804;51.176;4.452;2022-12-18T14:45:57;1.20;99.90
24686;DHT22;12804;51.176;4.452;2022-12-18T14:48:43;1.20;99.90
24686;DHT22;12804;51.176;4.452;2022-12-18T14:51:33;1.30;99.90
24686;DHT22;12804;51.176;4.452;2022-12-18T14:54:15;1.40;99.90
24686;DHT22;12804;51.176;4.452;2022-12-18T14:59:25;1.30;99.90
24686;DHT22;12804;51.176;4.452;2022-12-18T15:02:14;1.10;99.90
24686;DHT22;12804;51.176;4.452;2022-12-18T15:04:43;1.10;99.90
24686;DHT22;12804;51.176;4.452;2022-12-18T15:09:40;1.10;99.90
24686;DHT22;12804;51.176;4.452;2022-12-18T15:14:58;1.10;99.90
24686;DHT22;12804;51.176;4.452;2022-12-18T15:17:27;1.10;99.90
24686;DHT22;12804;51.176;4.452;2022-12-18T15:19:59;1.20;99.90
24686;DHT22;12804;51.176;4.452;2022-12-18T15:22:26;1.20;99.90
24686;DHT22;12804;51.176;4.452;2022-12-18T15:24:54;1.30;99.90
24686;DHT22;12804;51.176;4.452;2022-12-18T15:27:33;1.30;99.90
24686;DHT22;12804;51.176;4.452;2022-12-18T15:32:39;1.30;99.90
24686;DHT22;12804;51.176;4.452;2022-12-18T15:37:40;1.30;99.90
24686;DHT22;12804;51.176;4.452;2022-12-18T15:40:06;1.30;99.90
24686;DHT22;12804;51.176;4.452;2022-12-18T15:42:33;1.30;99.90
24686;DHT22;12804;51.176;4.452;2022-12-18T15:45:17;1.20;99.90
24686;DHT22;12804;51.176;4.452;2022-12-18T15:47:43;1.10;99.90
24686;DHT22;12804;51.176;4.452;2022-12-18T15:50:09;1.00;99.90
24686;DHT22;12804;51.176;4.452;2022-12-18T15:52:48;1.20;99.90
24686;DHT22;12804;51.176;4.452;2022-12-18T15:55:17;1.20;99.90
24686;DHT22;12804;51.176;4.452;2022-12-18T15:58:02;1.20;99.90
24686;DHT22;12804;51.176;4.452;2022-12-18T16:00:28;1.20;99.90
24686;DHT22;12804;51.176;4.452;2022-12-18T16:02:54;1.20;99.90
24686;DHT22;12804;51.176;4.452;2022-12-18T16:05:21;1.20;99.90
24686;DHT22;12804;51.176;4.452;2022-12-18T16:07:47;1.20;99.90
24686;DHT22;12804;51.176;4.452;2022-12-18T16:10:13;1.00;99.90
24686;DHT22;12804;51.176;4.452;2022-12-18T16:12:39;0.90;99.90
24686;DHT22;12804;51.176;4.452;2022-12-18T16:15:07;1.00;99.90
24686;DHT22;12804;51.176;4.452;2022-12-18T16:17:33;1.10;99.90
24686;DHT22;12804;51.176;4.452;2022-12-18T16:19:59;1.20;99.90
24686;DHT22;12804;51.176;4.452;2022-12-18T16:22:27;1.20;99.90
24686;DHT22;12804;51.176;4.452;2022-12-18T16:24:54;1.20;99.90
24686;DHT22;12804;51.176;4.452;2022-12-18T16:27:21;1.10;99.90
24686;DHT22;12804;51.176;4.452;2022-12-18T16:29:47;1.00;99.90
24686;DHT22;12804;51.176;4.452;2022-12-18T16:32:17;1.00;99.90
24686;DHT22;12804;51.176;4.452;2022-12-18T16:34:44;1.00;99.90
24686;DHT22;12804;51.176;4.452;2022-12-18T16:37:11;1.10;99.90
24686;DHT22;12804;51.176;4.452;2022-12-18T16:39:38;1.00;99.90
24686;DHT22;12804;51.176;4.452;2022-12-18T16:42:10;1.10;99.90
24686;DHT22;12804;51.176;4.452;2022-12-18T16:44:40;1.10;99.90
24686;DHT22;12804;51.176;4.452;2022-12-18T16:47:06;1.20;99.90
24686;DHT22;12804;51.176;4.452;2022-12-18T16:49:32;1.10;99.90
24686;DHT22;12804;51.176;4.452;2022-12-18T16:51:58;1.00;99.90
24686;DHT22;12804;51.176;4.452;2022-12-18T16:54:24;1.00;99.90
24686;DHT22;12804;51.176;4.452;2022-12-18T16:56:50;1.00;99.90
24686;DHT22;12804;51.176;4.452;2022-12-18T16:59:17;1.10;99.90
24686;DHT22;12804;51.176;4.452;2022-12-18T17:01:43;1.20;99.90
24686;DHT22;12804;51.176;4.452;2022-12-18T17:04:09;1.30;99.90
24686;DHT22;12804;51.176;4.452;2022-12-18T17:06:40;1.40;99.90
24686;DHT22;12804;51.176;4.452;2022-12-18T17:09:07;1.40;99.90
24686;DHT22;12804;51.176;4.452;2022-12-18T17:11:34;1.40;99.90
24686;DHT22;12804;51.176;4.452;2022-12-18T17:14:14;1.40;99.90
24686;DHT22;12804;51.176;4.452;2022-12-18T17:16:40;1.40;99.90
24686;DHT22;12804;51.176;4.452;2022-12-18T17:19:06;1.40;99.90
24686;DHT22;12804;51.176;4.452;2022-12-18T17:21:32;1.50;99.90
24686;DHT22;12804;51.176;4.452;2022-12-18T17:24:01;1.60;99.90
24686;DHT22;12804;51.176;4.452;2022-12-18T17:26:28;1.60;99.90
24686;DHT22;12804;51.176;4.452;2022-12-18T17:28:57;1.70;99.90
24686;DHT22;12804;51.176;4.452;2022-12-18T17:31:26;1.70;99.90
24686;DHT22;12804;51.176;4.452;2022-12-18T17:33:52;1.80;99.90
24686;DHT22;12804;51.176;4.452;2022-12-18T17:36:18;1.60;99.90
24686;DHT22;12804;51.176;4.452;2022-12-18T17:38:55;1.60;99.90
24686;DHT22;12804;51.176;4.452;2022-12-18T17:41:23;1.60;99.90
24686;DHT22;12804;51.176;4.452;2022-12-18T17:43:53;1.80;99.90
24686;DHT22;12804;51.176;4.452;2022-12-18T17:46:20;1.70;99.90
24686;DHT22;12804;51.176;4.452;2022-12-18T17:48:46;1.80;99.90
24686;DHT22;12804;51.176;4.452;2022-12-18T17:51:12;1.80;99.90
24686;DHT22;12804;51.176;4.452;2022-12-18T17:53:38;1.80;99.90
24686;DHT22;12804;51.176;4.452;2022-12-18T17:56:04;1.60;99.90